createdAt,value
2023-05-04T00:00:04.956Z,82.26
2023-05-04T00:00:31.359Z,82.15
2023-05-04T00:01:04.008Z,82.15
2023-05-04T00:01:36.674Z,82.22
2023-05-04T00:02:09.348Z,82.26
2023-05-04T00:02:42.084Z,82.32
2023-05-04T00:03:14.916Z,82.43
2023-05-04T00:03:47.714Z,82.53
2023-05-04T00:04:20.441Z,82.67
2023-05-04T00:04:53.263Z,83.19
2023-05-04T00:05:25.930Z,83.29
2023-05-04T00:05:58.622Z,83.19
2023-05-04T00:06:31.285Z,83.09
2023-05-04T00:07:03.950Z,83.09
2023-05-04T00:07:36.643Z,83.09
2023-05-04T00:08:09.373Z,82.98
2023-05-04T00:08:42.027Z,82.98
2023-05-04T00:09:14.735Z,82.98
2023-05-04T00:09:47.412Z,82.88
2023-05-04T00:10:20.060Z,82.78
2023-05-04T00:10:52.736Z,82.67
2023-05-04T00:11:25.396Z,83.09
2023-05-04T00:11:58.074Z,83.50
2023-05-04T00:12:30.808Z,83.50
2023-05-04T00:13:03.497Z,83.40
2023-05-04T00:13:36.142Z,83.29
2023-05-04T00:14:08.810Z,83.19
2023-05-04T00:14:41.483Z,83.19
2023-05-04T00:15:14.139Z,83.19
2023-05-04T00:15:46.830Z,83.19
2023-05-04T00:16:19.561Z,83.09
2023-05-04T00:16:52.241Z,83.09
2023-05-04T00:17:25.009Z,83.09
2023-05-04T00:17:57.707Z,83.09
2023-05-04T00:18:30.368Z,83.09
2023-05-04T00:19:03.041Z,83.09
2023-05-04T00:19:35.719Z,83.09
2023-05-04T00:20:08.436Z,83.81
2023-05-04T00:20:41.088Z,83.91
2023-05-04T00:21:13.780Z,83.91
2023-05-04T00:21:46.458Z,83.81
2023-05-04T00:22:19.125Z,83.61
2023-05-04T00:22:51.809Z,83.61
2023-05-04T00:23:24.501Z,83.61
2023-05-04T00:23:57.155Z,83.71
2023-05-04T00:24:29.848Z,83.71
2023-05-04T00:25:02.511Z,83.81
2023-05-04T00:25:35.155Z,84.22
2023-05-04T00:26:07.841Z,84.37
2023-05-04T00:26:40.480Z,84.27
2023-05-04T00:27:13.170Z,84.16
2023-05-04T00:27:45.838Z,84.06
2023-05-04T00:28:18.485Z,84.06
2023-05-04T00:28:51.187Z,84.06
2023-05-04T00:29:23.844Z,83.95
2023-05-04T00:29:56.512Z,84.06
2023-05-04T00:30:29.187Z,83.85
2023-05-04T00:31:01.849Z,83.75
2023-05-04T00:31:34.519Z,83.75
2023-05-04T00:32:07.285Z,83.75
2023-05-04T00:32:40.027Z,83.85
2023-05-04T00:33:12.768Z,83.85
2023-05-04T00:33:45.450Z,83.85
2023-05-04T00:34:18.113Z,83.95
2023-05-04T00:34:50.782Z,84.06
2023-05-04T00:35:23.456Z,84.88
2023-05-04T00:35:56.133Z,85.50
2023-05-04T00:36:28.812Z,85.50
2023-05-04T00:37:01.528Z,85.40
2023-05-04T00:37:34.169Z,85.19
2023-05-04T00:38:06.924Z,85.19
2023-05-04T00:38:39.571Z,85.19
2023-05-04T00:39:12.243Z,85.19
2023-05-04T00:39:44.950Z,85.09
2023-05-04T00:40:17.605Z,84.99
2023-05-04T00:40:50.268Z,84.88
2023-05-04T00:41:22.953Z,84.88
2023-05-04T00:41:55.619Z,84.99
2023-05-04T00:42:28.314Z,85.09
2023-05-04T00:43:01.018Z,84.99
2023-05-04T00:43:33.677Z,84.88
2023-05-04T00:44:06.336Z,84.78
2023-05-04T00:44:39.008Z,84.78
2023-05-04T00:45:11.674Z,84.78
2023-05-04T00:45:44.343Z,85.30
2023-05-04T00:46:17.012Z,85.50
2023-05-04T00:46:49.762Z,85.40
2023-05-04T00:47:22.796Z,85.30
2023-05-04T00:47:49.277Z,85.24
2023-05-04T00:48:21.935Z,85.09
2023-05-04T00:48:54.596Z,85.13
2023-05-04T00:49:27.267Z,85.30
2023-05-04T00:49:59.932Z,85.50
2023-05-04T00:50:32.607Z,85.44
2023-05-04T00:51:05.293Z,85.65
2023-05-04T00:51:36.353Z,85.65
2023-05-04T00:52:09.033Z,85.55
2023-05-04T00:52:41.704Z,85.44
2023-05-04T00:53:14.391Z,85.44
2023-05-04T00:53:47.056Z,85.34
2023-05-04T00:54:19.760Z,85.44
2023-05-04T00:54:52.426Z,85.34
2023-05-04T00:55:25.069Z,85.24
2023-05-04T00:55:57.759Z,85.24
2023-05-04T00:56:30.434Z,85.13
2023-05-04T00:57:03.109Z,85.03
2023-05-04T00:57:35.794Z,85.03
2023-05-04T00:58:08.540Z,85.13
2023-05-04T00:58:39.617Z,85.13
2023-05-04T00:59:12.291Z,85.13
2023-05-04T00:59:45.003Z,85.03
2023-05-04T01:00:17.636Z,85.03
2023-05-04T01:00:50.322Z,85.13
2023-05-04T01:01:23.023Z,85.13
2023-05-04T01:01:55.687Z,85.03
2023-05-04T01:02:28.408Z,85.13
2023-05-04T01:03:01.155Z,85.24
2023-05-04T01:03:33.887Z,85.24
2023-05-04T01:04:06.601Z,85.24
2023-05-04T01:04:39.368Z,85.24
2023-05-04T01:05:12.037Z,85.44
2023-05-04T01:05:44.686Z,85.44
2023-05-04T01:06:17.400Z,85.65
2023-05-04T01:06:50.056Z,85.75
2023-05-04T01:07:21.196Z,85.65
2023-05-04T01:07:53.881Z,85.65
2023-05-04T01:08:26.570Z,85.65
2023-05-04T01:08:59.227Z,85.75
2023-05-04T01:09:31.934Z,85.86
2023-05-04T01:10:05.044Z,85.75
2023-05-04T01:10:31.365Z,85.65
2023-05-04T01:11:04.020Z,85.86
2023-05-04T01:11:36.709Z,86.17
2023-05-04T01:12:09.363Z,86.31
2023-05-04T01:12:42.068Z,86.41
2023-05-04T01:13:14.837Z,86.62
2023-05-04T01:13:47.590Z,86.93
2023-05-04T01:14:20.281Z,87.24
2023-05-04T01:14:52.947Z,87.35
2023-05-04T01:15:25.643Z,87.45
2023-05-04T01:15:58.338Z,87.45
2023-05-04T01:16:31.023Z,87.24
2023-05-04T01:17:03.802Z,87.04
2023-05-04T01:17:36.692Z,86.83
2023-05-04T01:18:09.399Z,86.72
2023-05-04T01:18:42.096Z,86.62
2023-05-04T01:19:14.790Z,86.52
2023-05-04T01:19:47.458Z,86.52
2023-05-04T01:20:20.145Z,86.52
2023-05-04T01:20:52.787Z,86.52
2023-05-04T01:21:25.459Z,86.31
2023-05-04T01:21:58.122Z,86.31
2023-05-04T01:22:30.803Z,86.31
2023-05-04T01:23:03.470Z,86.21
2023-05-04T01:23:36.164Z,86.10
2023-05-04T01:24:08.841Z,86.10
2023-05-04T01:24:41.517Z,86.10
2023-05-04T01:25:14.199Z,86.00
2023-05-04T01:25:46.847Z,86.10
2023-05-04T01:26:19.519Z,86.21
2023-05-04T01:26:52.173Z,86.31
2023-05-04T01:27:23.274Z,86.41
2023-05-04T01:27:55.940Z,86.52
2023-05-04T01:28:28.642Z,86.41
2023-05-04T01:28:59.707Z,86.41
2023-05-04T01:29:32.388Z,86.31
2023-05-04T01:30:05.266Z,86.31
2023-05-04T01:30:31.617Z,86.31
2023-05-04T01:31:04.328Z,86.55
2023-05-04T01:31:37.007Z,86.66
2023-05-04T01:32:09.642Z,86.76
2023-05-04T01:32:42.358Z,86.76
2023-05-04T01:33:15.008Z,86.87
2023-05-04T01:33:47.721Z,86.87
2023-05-04T01:34:20.371Z,86.76
2023-05-04T01:34:53.039Z,86.76
2023-05-04T01:35:25.738Z,86.87
2023-05-04T01:35:58.420Z,86.97
2023-05-04T01:36:31.084Z,87.07
2023-05-04T01:37:03.783Z,87.18
2023-05-04T01:37:36.452Z,87.28
2023-05-04T01:38:09.113Z,87.28
2023-05-04T01:38:41.787Z,87.28
2023-05-04T01:39:14.467Z,87.18
2023-05-04T01:39:47.138Z,87.18
2023-05-04T01:40:19.861Z,87.18
2023-05-04T01:40:52.527Z,87.07
2023-05-04T01:41:25.165Z,87.18
2023-05-04T01:41:57.830Z,87.07
2023-05-04T01:42:30.498Z,87.18
2023-05-04T01:43:03.151Z,87.18
2023-05-04T01:43:35.818Z,87.28
2023-05-04T01:44:08.527Z,87.43
2023-05-04T01:44:41.212Z,87.53
2023-05-04T01:45:13.876Z,87.53
2023-05-04T01:45:46.560Z,87.63
2023-05-04T01:46:19.269Z,87.63
2023-05-04T01:46:51.920Z,87.74
2023-05-04T01:47:24.654Z,87.95
2023-05-04T01:47:57.328Z,87.95
2023-05-04T01:48:29.992Z,88.15
2023-05-04T01:49:02.667Z,88.15
2023-05-04T01:49:35.330Z,88.05
2023-05-04T01:50:08.046Z,87.95
2023-05-04T01:50:40.712Z,88.05
2023-05-04T01:51:13.387Z,88.26
2023-05-04T01:51:46.081Z,88.36
2023-05-04T01:52:18.745Z,88.57
2023-05-04T01:52:51.406Z,88.46
2023-05-04T01:53:22.508Z,88.46
2023-05-04T01:53:55.202Z,88.36
2023-05-04T01:54:27.863Z,88.51
2023-05-04T01:55:00.589Z,88.40
2023-05-04T01:55:33.250Z,88.51
2023-05-04T01:56:05.890Z,88.51
2023-05-04T01:56:38.563Z,88.51
2023-05-04T01:57:11.223Z,88.51
2023-05-04T01:57:43.907Z,88.61
2023-05-04T01:58:16.577Z,88.61
2023-05-04T01:58:49.270Z,88.51
2023-05-04T01:59:21.936Z,88.40
2023-05-04T01:59:54.616Z,88.40
2023-05-04T02:00:27.263Z,88.40
2023-05-04T02:00:59.933Z,88.51
2023-05-04T02:01:32.662Z,88.61
2023-05-04T02:02:05.446Z,88.61
2023-05-04T02:02:38.268Z,88.71
2023-05-04T02:03:11.012Z,88.82
2023-05-04T02:03:43.830Z,88.92
2023-05-04T02:04:16.512Z,88.82
2023-05-04T02:04:49.184Z,88.82
2023-05-04T02:05:21.874Z,88.71
2023-05-04T02:05:54.513Z,88.61
2023-05-04T02:06:27.176Z,88.51
2023-05-04T02:06:59.837Z,88.40
2023-05-04T02:07:32.491Z,88.40
2023-05-04T02:08:05.161Z,88.51
2023-05-04T02:08:37.844Z,88.61
2023-05-04T02:09:10.498Z,88.61
2023-05-04T02:09:43.169Z,88.61
2023-05-04T02:10:15.830Z,88.51
2023-05-04T02:10:48.530Z,88.51
2023-05-04T02:11:21.176Z,88.61
2023-05-04T02:11:53.844Z,88.71
2023-05-04T02:12:26.543Z,88.92
2023-05-04T02:12:59.249Z,89.06
2023-05-04T02:13:31.996Z,89.17
2023-05-04T02:14:04.667Z,89.17
2023-05-04T02:14:37.346Z,89.17
2023-05-04T02:15:10.032Z,89.17
2023-05-04T02:15:42.720Z,89.06
2023-05-04T02:16:15.412Z,89.06
2023-05-04T02:16:48.068Z,89.06
2023-05-04T02:17:20.709Z,89.06
2023-05-04T02:17:53.450Z,89.06
2023-05-04T02:18:26.152Z,89.06
2023-05-04T02:18:58.830Z,89.17
2023-05-04T02:19:31.472Z,89.17
2023-05-04T02:20:04.573Z,89.17
2023-05-04T02:20:31.165Z,89.27
2023-05-04T02:21:03.844Z,89.27
2023-05-04T02:21:36.515Z,89.27
2023-05-04T02:22:09.168Z,89.27
2023-05-04T02:22:41.864Z,89.17
2023-05-04T02:23:14.545Z,89.06
2023-05-04T02:23:47.177Z,88.96
2023-05-04T02:24:19.860Z,88.96
2023-05-04T02:24:52.530Z,88.96
2023-05-04T02:25:25.200Z,89.17
2023-05-04T02:25:57.892Z,89.27
2023-05-04T02:26:30.540Z,89.48
2023-05-04T02:27:03.199Z,89.58
2023-05-04T02:27:35.918Z,89.58
2023-05-04T02:28:08.588Z,89.62
2023-05-04T02:28:41.274Z,89.62
2023-05-04T02:29:13.987Z,89.52
2023-05-04T02:29:46.667Z,89.52
2023-05-04T02:30:19.340Z,89.52
2023-05-04T02:30:52.008Z,89.52
2023-05-04T02:31:24.741Z,89.42
2023-05-04T02:31:57.535Z,89.42
2023-05-04T02:32:30.215Z,89.31
2023-05-04T02:33:02.916Z,89.21
2023-05-04T02:33:35.597Z,89.11
2023-05-04T02:34:08.293Z,89.11
2023-05-04T02:34:40.955Z,89.00
2023-05-04T02:35:13.617Z,89.00
2023-05-04T02:35:46.296Z,89.00
2023-05-04T02:36:18.959Z,88.90
2023-05-04T02:36:51.644Z,88.90
2023-05-04T02:37:24.313Z,88.90
2023-05-04T02:37:56.951Z,89.00
2023-05-04T02:38:29.623Z,88.96
2023-05-04T02:39:02.316Z,88.96
2023-05-04T02:39:34.992Z,89.11
2023-05-04T02:40:07.959Z,89.11
2023-05-04T02:40:34.220Z,89.00
2023-05-04T02:41:06.905Z,89.00
2023-05-04T02:41:39.547Z,89.00
2023-05-04T02:42:12.213Z,89.00
2023-05-04T02:42:44.881Z,89.00
2023-05-04T02:43:17.579Z,89.00
2023-05-04T02:43:50.219Z,89.00
2023-05-04T02:44:22.904Z,88.90
2023-05-04T02:44:55.570Z,88.90
2023-05-04T02:45:28.269Z,88.90
2023-05-04T02:46:00.946Z,89.00
2023-05-04T02:46:33.668Z,89.00
2023-05-04T02:47:06.317Z,89.11
2023-05-04T02:47:39.026Z,89.21
2023-05-04T02:48:11.671Z,89.21
2023-05-04T02:48:44.344Z,89.21
2023-05-04T02:49:17.021Z,89.21
2023-05-04T02:49:49.696Z,89.21
2023-05-04T02:50:22.396Z,89.11
2023-05-04T02:50:55.060Z,89.11
2023-05-04T02:51:27.716Z,89.00
2023-05-04T02:52:00.387Z,89.00
2023-05-04T02:52:33.058Z,89.11
2023-05-04T02:53:05.738Z,89.11
2023-05-04T02:53:38.414Z,89.11
2023-05-04T02:54:11.100Z,89.11
2023-05-04T02:54:43.765Z,89.11
2023-05-04T02:55:16.426Z,89.00
2023-05-04T02:55:49.094Z,89.00
2023-05-04T02:56:21.793Z,89.00
2023-05-04T02:56:54.459Z,89.11
2023-05-04T02:57:27.107Z,89.11
2023-05-04T02:57:59.853Z,89.11
2023-05-04T02:58:32.510Z,89.11
2023-05-04T02:59:05.189Z,89.00
2023-05-04T02:59:37.859Z,89.00
2023-05-04T03:00:10.531Z,89.11
2023-05-04T03:00:43.197Z,89.11
2023-05-04T03:01:15.928Z,89.21
2023-05-04T03:01:48.728Z,89.21
2023-05-04T03:02:21.495Z,89.11
2023-05-04T03:02:54.200Z,89.11
2023-05-04T03:03:26.841Z,89.11
2023-05-04T03:03:59.606Z,89.11
2023-05-04T03:04:32.332Z,89.21
2023-05-04T03:05:03.371Z,89.31
2023-05-04T03:05:36.031Z,89.21
2023-05-04T03:06:08.703Z,89.21
2023-05-04T03:06:41.384Z,89.21
2023-05-04T03:07:14.058Z,89.31
2023-05-04T03:07:46.726Z,89.31
2023-05-04T03:08:19.415Z,89.46
2023-05-04T03:08:52.101Z,89.56
2023-05-04T03:09:24.762Z,89.67
2023-05-04T03:09:57.428Z,89.77
2023-05-04T03:10:30.097Z,89.77
2023-05-04T03:11:02.756Z,89.77
2023-05-04T03:11:35.460Z,89.87
2023-05-04T03:12:08.120Z,89.77
2023-05-04T03:12:40.846Z,89.77
2023-05-04T03:13:13.543Z,89.77
2023-05-04T03:13:46.215Z,89.77
2023-05-04T03:14:18.951Z,89.77
2023-05-04T03:14:51.607Z,89.77
2023-05-04T03:15:24.294Z,89.77
2023-05-04T03:15:57.010Z,89.77
2023-05-04T03:16:29.707Z,89.70
2023-05-04T03:17:02.359Z,89.70
2023-05-04T03:17:35.087Z,89.60
2023-05-04T03:18:07.795Z,89.70
2023-05-04T03:18:40.467Z,89.81
2023-05-04T03:19:13.150Z,90.02
2023-05-04T03:19:45.815Z,90.12
2023-05-04T03:20:18.475Z,90.23
2023-05-04T03:20:51.137Z,90.33
2023-05-04T03:21:23.797Z,90.54
2023-05-04T03:21:56.458Z,90.54
2023-05-04T03:22:29.142Z,90.54
2023-05-04T03:23:01.813Z,90.64
2023-05-04T03:23:34.469Z,90.75
2023-05-04T03:24:07.140Z,90.85
2023-05-04T03:24:39.815Z,91.06
2023-05-04T03:25:12.499Z,91.06
2023-05-04T03:25:45.164Z,91.16
2023-05-04T03:26:17.845Z,91.31
2023-05-04T03:26:50.533Z,91.41
2023-05-04T03:27:23.203Z,91.41
2023-05-04T03:27:55.859Z,91.41
2023-05-04T03:28:28.508Z,91.41
2023-05-04T03:29:01.162Z,91.41
2023-05-04T03:29:33.838Z,91.41
2023-05-04T03:30:06.780Z,91.31
2023-05-04T03:30:33.118Z,91.31
2023-05-04T03:31:05.769Z,91.31
2023-05-04T03:31:38.508Z,91.31
2023-05-04T03:32:11.180Z,91.31
2023-05-04T03:32:43.869Z,91.31
2023-05-04T03:33:16.510Z,91.31
2023-05-04T03:33:49.197Z,91.20
2023-05-04T03:34:21.887Z,91.20
2023-05-04T03:34:54.557Z,91.20
2023-05-04T03:35:27.250Z,91.31
2023-05-04T03:35:59.907Z,91.41
2023-05-04T03:36:32.572Z,91.52
2023-05-04T03:37:05.248Z,91.62
2023-05-04T03:37:37.885Z,91.72
2023-05-04T03:38:10.565Z,91.93
2023-05-04T03:38:43.208Z,92.14
2023-05-04T03:39:15.885Z,92.24
2023-05-04T03:39:42.548Z,92.24
2023-05-04T03:40:15.195Z,92.35
2023-05-04T03:40:47.890Z,92.35
2023-05-04T03:41:20.536Z,92.24
2023-05-04T03:41:53.234Z,92.14
2023-05-04T03:42:25.876Z,92.03
2023-05-04T03:42:58.557Z,91.93
2023-05-04T03:43:31.234Z,91.83
2023-05-04T03:44:03.896Z,91.62
2023-05-04T03:44:36.621Z,91.62
2023-05-04T03:45:09.304Z,91.62
2023-05-04T03:45:41.963Z,91.62
2023-05-04T03:46:14.652Z,91.62
2023-05-04T03:46:47.318Z,91.62
2023-05-04T03:47:19.983Z,91.52
2023-05-04T03:47:52.709Z,91.52
2023-05-04T03:48:25.420Z,91.52
2023-05-04T03:48:58.133Z,91.41
2023-05-04T03:49:30.781Z,91.41
2023-05-04T03:50:03.647Z,91.31
2023-05-04T03:50:30.094Z,91.31
2023-05-04T03:51:02.796Z,91.31
2023-05-04T03:51:35.452Z,91.31
2023-05-04T03:52:08.130Z,91.41
2023-05-04T03:52:40.825Z,91.41
2023-05-04T03:53:13.485Z,91.41
2023-05-04T03:53:46.144Z,91.31
2023-05-04T03:54:18.827Z,91.20
2023-05-04T03:54:51.515Z,91.20
2023-05-04T03:55:24.183Z,91.10
2023-05-04T03:55:57.044Z,91.00
2023-05-04T03:56:28.123Z,91.00
2023-05-04T03:57:00.866Z,91.00
2023-05-04T03:57:33.493Z,90.79
2023-05-04T03:58:06.159Z,90.69
2023-05-04T03:58:38.822Z,90.69
2023-05-04T03:59:11.508Z,90.69
2023-05-04T03:59:44.177Z,90.79
2023-05-04T04:00:16.832Z,90.79
2023-05-04T04:00:49.514Z,90.89
2023-05-04T04:01:22.175Z,90.89
2023-05-04T04:01:54.860Z,90.89
2023-05-04T04:02:27.631Z,90.89
2023-05-04T04:03:00.466Z,90.89
2023-05-04T04:03:33.243Z,90.79
2023-05-04T04:04:06.142Z,90.89
2023-05-04T04:04:38.972Z,90.89
2023-05-04T04:05:11.666Z,90.79
2023-05-04T04:05:44.319Z,90.89
2023-05-04T04:06:17.002Z,91.00
2023-05-04T04:06:49.656Z,91.00
2023-05-04T04:07:22.336Z,91.00
2023-05-04T04:07:55.024Z,91.00
2023-05-04T04:08:27.687Z,91.00
2023-05-04T04:09:00.360Z,91.00
2023-05-04T04:09:33.065Z,91.00
2023-05-04T04:10:06.189Z,91.00
2023-05-04T04:10:32.520Z,91.10
2023-05-04T04:11:05.164Z,91.10
2023-05-04T04:11:37.855Z,91.20
2023-05-04T04:12:10.558Z,91.20
2023-05-04T04:12:43.227Z,91.20
2023-05-04T04:13:16.083Z,91.20
2023-05-04T04:13:48.766Z,91.20
2023-05-04T04:14:21.517Z,91.20
2023-05-04T04:14:54.174Z,91.20
2023-05-04T04:15:26.847Z,91.20
2023-05-04T04:15:59.587Z,91.10
2023-05-04T04:16:32.330Z,91.10
2023-05-04T04:17:05.035Z,91.10
2023-05-04T04:17:37.686Z,91.00
2023-05-04T04:18:10.381Z,91.00
2023-05-04T04:18:43.053Z,90.85
2023-05-04T04:19:15.714Z,91.00
2023-05-04T04:19:48.402Z,91.06
2023-05-04T04:20:21.091Z,91.06
2023-05-04T04:20:53.807Z,91.06
2023-05-04T04:21:26.445Z,90.95
2023-05-04T04:21:59.118Z,90.95
2023-05-04T04:22:31.788Z,90.95
2023-05-04T04:23:04.471Z,90.95
2023-05-04T04:23:37.138Z,91.06
2023-05-04T04:24:09.798Z,91.06
2023-05-04T04:24:42.492Z,91.16
2023-05-04T04:25:15.161Z,91.16
2023-05-04T04:25:47.812Z,91.27
2023-05-04T04:26:20.472Z,91.16
2023-05-04T04:26:53.141Z,91.16
2023-05-04T04:27:25.844Z,91.06
2023-05-04T04:27:58.499Z,91.06
2023-05-04T04:28:31.151Z,91.06
2023-05-04T04:29:03.822Z,91.06
2023-05-04T04:29:36.489Z,91.06
2023-05-04T04:30:09.156Z,91.06
2023-05-04T04:30:41.823Z,91.06
2023-05-04T04:31:14.525Z,91.06
2023-05-04T04:31:47.230Z,91.06
2023-05-04T04:32:19.879Z,91.16
2023-05-04T04:32:52.582Z,91.16
2023-05-04T04:33:25.244Z,91.06
2023-05-04T04:33:57.909Z,91.06
2023-05-04T04:34:30.616Z,90.95
2023-05-04T04:35:03.266Z,90.91
2023-05-04T04:35:35.927Z,91.02
2023-05-04T04:36:08.588Z,91.12
2023-05-04T04:36:41.277Z,91.33
2023-05-04T04:37:13.974Z,91.43
2023-05-04T04:37:46.614Z,91.33
2023-05-04T04:38:19.311Z,91.22
2023-05-04T04:38:51.978Z,91.08
2023-05-04T04:39:24.734Z,90.87
2023-05-04T04:39:57.412Z,90.77
2023-05-04T04:40:30.080Z,90.66
2023-05-04T04:41:02.756Z,90.56
2023-05-04T04:41:35.440Z,90.45
2023-05-04T04:42:08.108Z,90.35
2023-05-04T04:42:40.901Z,90.41
2023-05-04T04:43:13.546Z,90.31
2023-05-04T04:43:46.213Z,90.20
2023-05-04T04:44:18.888Z,90.00
2023-05-04T04:44:51.572Z,89.89
2023-05-04T04:45:24.250Z,89.79
2023-05-04T04:45:56.948Z,89.58
2023-05-04T04:46:29.628Z,89.48
2023-05-04T04:47:02.367Z,89.48
2023-05-04T04:47:35.046Z,89.37
2023-05-04T04:48:07.766Z,89.23
2023-05-04T04:48:40.424Z,89.23
2023-05-04T04:49:13.106Z,89.13
2023-05-04T04:49:45.771Z,89.13
2023-05-04T04:50:18.442Z,89.03
2023-05-04T04:50:51.117Z,88.98
2023-05-04T04:51:23.788Z,88.78
2023-05-04T04:51:56.471Z,88.67
2023-05-04T04:52:29.128Z,88.57
2023-05-04T04:53:01.823Z,88.36
2023-05-04T04:53:34.471Z,88.36
2023-05-04T04:54:07.139Z,88.36
2023-05-04T04:54:39.816Z,88.26
2023-05-04T04:55:12.501Z,88.15
2023-05-04T04:55:45.162Z,88.05
2023-05-04T04:56:17.858Z,87.95
2023-05-04T04:56:50.518Z,87.74
2023-05-04T04:57:23.220Z,87.59
2023-05-04T04:57:55.884Z,87.49
2023-05-04T04:58:28.545Z,87.49
2023-05-04T04:59:01.239Z,87.49
2023-05-04T04:59:33.907Z,87.38
2023-05-04T05:00:06.772Z,87.38
2023-05-04T05:00:33.086Z,87.38
2023-05-04T05:01:05.805Z,87.38
2023-05-04T05:01:38.458Z,87.28
2023-05-04T05:02:11.127Z,87.07
2023-05-04T05:02:43.845Z,87.07
2023-05-04T05:03:16.576Z,86.93
2023-05-04T05:03:49.236Z,86.93
2023-05-04T05:04:21.908Z,87.04
2023-05-04T05:04:54.700Z,87.04
2023-05-04T05:05:27.789Z,86.72
2023-05-04T05:05:54.795Z,86.72
2023-05-04T05:06:27.508Z,86.83
2023-05-04T05:07:00.157Z,86.62
2023-05-04T05:07:32.813Z,86.52
2023-05-04T05:08:05.491Z,86.47
2023-05-04T05:08:38.145Z,86.47
2023-05-04T05:09:10.808Z,86.17
2023-05-04T05:09:43.499Z,86.07
2023-05-04T05:10:16.189Z,86.07
2023-05-04T05:10:48.840Z,86.07
2023-05-04T05:11:21.516Z,86.07
2023-05-04T05:11:54.186Z,86.07
2023-05-04T05:12:26.849Z,85.71
2023-05-04T05:12:59.557Z,85.61
2023-05-04T05:13:32.332Z,85.50
2023-05-04T05:14:05.006Z,85.19
2023-05-04T05:14:37.676Z,85.19
2023-05-04T05:15:10.358Z,85.09
2023-05-04T05:15:43.028Z,84.88
2023-05-04T05:16:15.769Z,84.88
2023-05-04T05:16:48.540Z,84.99
2023-05-04T05:17:21.288Z,84.84
2023-05-04T05:17:53.968Z,84.74
2023-05-04T05:18:26.698Z,84.74
2023-05-04T05:18:59.357Z,84.53
2023-05-04T05:19:32.025Z,84.43
2023-05-04T05:20:05.167Z,84.43
2023-05-04T05:20:31.453Z,84.43
2023-05-04T05:21:04.120Z,84.22
2023-05-04T05:21:36.819Z,84.12
2023-05-04T05:22:09.471Z,84.12
2023-05-04T05:22:42.132Z,83.91
2023-05-04T05:23:14.829Z,83.67
2023-05-04T05:23:47.468Z,83.46
2023-05-04T05:24:20.129Z,83.56
2023-05-04T05:24:52.819Z,83.77
2023-05-04T05:25:25.490Z,83.77
2023-05-04T05:25:58.154Z,83.87
2023-05-04T05:26:30.833Z,83.98
2023-05-04T05:27:03.515Z,83.77
2023-05-04T05:27:36.178Z,83.36
2023-05-04T05:28:08.878Z,82.95
2023-05-04T05:28:41.521Z,82.74
2023-05-04T05:29:14.178Z,82.60
2023-05-04T05:29:46.851Z,82.60
2023-05-04T05:30:19.533Z,82.90
2023-05-04T05:30:52.398Z,82.80
2023-05-04T05:31:25.168Z,82.70
2023-05-04T05:31:57.836Z,82.70
2023-05-04T05:32:30.517Z,82.70
2023-05-04T05:33:03.236Z,82.70
2023-05-04T05:33:35.889Z,82.60
2023-05-04T05:34:08.556Z,82.50
2023-05-04T05:34:41.237Z,82.50
2023-05-04T05:35:13.914Z,82.56
2023-05-04T05:35:46.586Z,82.56
2023-05-04T05:36:19.266Z,82.56
2023-05-04T05:36:51.947Z,82.15
2023-05-04T05:37:24.619Z,81.94
2023-05-04T05:37:57.318Z,81.84
2023-05-04T05:38:29.981Z,81.52
2023-05-04T05:39:02.651Z,81.28
2023-05-04T05:39:35.320Z,81.28
2023-05-04T05:40:08.219Z,81.07
2023-05-04T05:40:39.071Z,81.07
2023-05-04T05:41:11.752Z,80.76
2023-05-04T05:41:44.458Z,80.56
2023-05-04T05:42:17.120Z,80.66
2023-05-04T05:42:49.802Z,80.56
2023-05-04T05:43:22.477Z,80.46
2023-05-04T05:43:55.122Z,80.73
2023-05-04T05:44:27.802Z,80.62
2023-05-04T05:45:00.462Z,80.21
2023-05-04T05:45:33.149Z,79.90
2023-05-04T05:46:05.815Z,79.80
2023-05-04T05:46:36.981Z,79.69
2023-05-04T05:47:09.622Z,79.69
2023-05-04T05:47:42.339Z,79.90
2023-05-04T05:48:14.986Z,79.80
2023-05-04T05:48:47.669Z,80.00
2023-05-04T05:49:20.329Z,80.11
2023-05-04T05:49:53.003Z,80.28
2023-05-04T05:50:25.673Z,80.28
2023-05-04T05:50:58.349Z,80.28
2023-05-04T05:51:31.030Z,79.86
2023-05-04T05:52:02.132Z,79.76
2023-05-04T05:52:34.806Z,79.76
2023-05-04T05:53:07.464Z,79.66
2023-05-04T05:53:40.128Z,79.86
2023-05-04T05:54:12.811Z,79.86
2023-05-04T05:54:45.509Z,79.66
2023-05-04T05:55:18.159Z,79.66
2023-05-04T05:55:50.819Z,79.62
2023-05-04T05:56:23.506Z,79.62
2023-05-04T05:56:56.187Z,79.52
2023-05-04T05:57:28.850Z,79.41
2023-05-04T05:58:01.514Z,79.31
2023-05-04T05:58:34.205Z,79.31
2023-05-04T05:59:06.852Z,79.41
2023-05-04T05:59:39.617Z,79.52
2023-05-04T06:00:12.270Z,79.52
2023-05-04T06:00:44.941Z,78.66
2023-05-04T06:01:17.614Z,78.14
2023-05-04T06:01:50.291Z,78.24
2023-05-04T06:02:23.074Z,78.45
2023-05-04T06:02:56.005Z,78.45
2023-05-04T06:03:28.873Z,78.34
2023-05-04T06:04:01.855Z,78.45
2023-05-04T06:04:34.605Z,78.31
2023-05-04T06:05:07.300Z,78.21
2023-05-04T06:05:39.984Z,78.11
2023-05-04T06:06:12.678Z,77.48
2023-05-04T06:06:46.242Z,77.28
2023-05-04T06:07:12.429Z,77.04
2023-05-04T06:07:45.115Z,76.63
2023-05-04T06:08:17.756Z,76.42
2023-05-04T06:08:50.453Z,76.63
2023-05-04T06:09:23.157Z,76.73
2023-05-04T06:09:55.863Z,77.14
2023-05-04T06:10:28.573Z,77.04
2023-05-04T06:11:01.267Z,76.18
2023-05-04T06:11:33.953Z,75.67
2023-05-04T06:12:06.632Z,75.77
2023-05-04T06:12:39.332Z,75.87
2023-05-04T06:13:12.056Z,76.18
2023-05-04T06:13:44.782Z,76.39
2023-05-04T06:14:17.428Z,76.70
2023-05-04T06:14:50.114Z,76.86
2023-05-04T06:15:22.785Z,76.45
2023-05-04T06:15:55.466Z,76.04
2023-05-04T06:16:28.159Z,75.73
2023-05-04T06:17:00.839Z,74.60
2023-05-04T06:17:33.509Z,74.91
2023-05-04T06:18:06.229Z,75.12
2023-05-04T06:18:38.916Z,75.52
2023-05-04T06:19:11.567Z,75.70
2023-05-04T06:19:44.239Z,75.70
2023-05-04T06:20:16.930Z,75.39
2023-05-04T06:20:49.588Z,75.59
2023-05-04T06:21:22.258Z,75.56
2023-05-04T06:21:53.372Z,75.15
2023-05-04T06:22:26.056Z,74.53
2023-05-04T06:22:58.713Z,74.60
2023-05-04T06:23:31.377Z,74.60
2023-05-04T06:24:04.052Z,74.40
2023-05-04T06:24:36.738Z,73.95
2023-05-04T06:25:09.443Z,74.15
2023-05-04T06:25:42.096Z,72.20
2023-05-04T06:26:14.744Z,72.10
2023-05-04T06:26:47.470Z,72.31
2023-05-04T06:27:20.682Z,73.02
2023-05-04T06:27:47.484Z,72.27
2023-05-04T06:28:20.159Z,72.06
2023-05-04T06:28:52.848Z,72.27
2023-05-04T06:29:25.513Z,72.68
2023-05-04T06:29:58.183Z,72.48
2023-05-04T06:30:30.852Z,72.58
2023-05-04T06:31:03.517Z,72.24
2023-05-04T06:31:36.220Z,72.14
2023-05-04T06:32:09.310Z,72.14
2023-05-04T06:32:35.640Z,71.83
2023-05-04T06:33:08.379Z,70.90
2023-05-04T06:33:41.033Z,70.50
2023-05-04T06:34:13.798Z,69.84
2023-05-04T06:34:46.469Z,69.43
2023-05-04T06:35:19.150Z,69.54
2023-05-04T06:35:51.838Z,69.84
2023-05-04T06:36:24.508Z,70.15
2023-05-04T06:36:57.175Z,70.87
2023-05-04T06:37:29.842Z,71.15
2023-05-04T06:38:02.506Z,70.84
2023-05-04T06:38:37.765Z,69.30
2023-05-04T06:39:05.284Z,68.99
2023-05-04T06:39:37.961Z,69.27
2023-05-04T06:40:10.922Z,69.06
2023-05-04T06:40:37.225Z,69.57
2023-05-04T06:41:09.905Z,68.93
2023-05-04T06:41:40.988Z,68.11
2023-05-04T06:42:13.756Z,67.60
2023-05-04T06:42:46.463Z,66.85
2023-05-04T06:43:19.122Z,66.54
2023-05-04T06:43:51.793Z,66.34
2023-05-04T06:44:24.484Z,67.23
2023-05-04T06:44:57.125Z,67.54
2023-05-04T06:45:29.806Z,66.82
2023-05-04T06:46:02.517Z,66.69
2023-05-04T06:46:35.196Z,66.48
2023-05-04T06:47:07.889Z,65.87
2023-05-04T06:47:40.587Z,65.22
2023-05-04T06:48:13.258Z,63.79
2023-05-04T06:48:45.926Z,63.39
2023-05-04T06:49:18.625Z,63.86
2023-05-04T06:49:51.285Z,64.07
2023-05-04T06:50:24.098Z,63.25
2023-05-04T06:50:55.054Z,63.35
2023-05-04T06:51:27.686Z,63.45
2023-05-04T06:52:00.350Z,63.35
2023-05-04T06:52:33.028Z,63.22
2023-05-04T06:53:05.691Z,63.83
2023-05-04T06:53:38.367Z,62.71
2023-05-04T06:54:11.021Z,61.79
2023-05-04T06:54:43.704Z,62.61
2023-05-04T06:55:16.366Z,62.81
2023-05-04T06:55:49.040Z,62.27
2023-05-04T06:56:21.706Z,62.27
2023-05-04T06:56:54.391Z,61.87
2023-05-04T06:57:27.077Z,61.56
2023-05-04T06:57:59.770Z,61.73
2023-05-04T06:58:32.435Z,61.63